Time,TemperatureF,DewpointF,PressureIn,WindDirection,WindDirectionDegrees,WindSpeedMPH,WindSpeedGustMPH,Humidity,HourlyPrecipIn,Conditions,Clouds,dailyrainin,SolarRadiationWatts/m^2,SoftwareType,DateUTC
2013-02-05 00:02:00,-6.0,-12.0,-100.00,SW,230,1.0,2.0,73,0.00,,,0.00,1.000000,,2013-02-05 06:02:00,
2013-02-05 00:11:00,-6.0,-12.0,-100.00,SW,230,1.0,2.0,73,0.00,,,0.00,1.000000,,2013-02-05 06:11:00,
2013-02-05 00:21:00,-6.0,-12.0,-100.00,SW,230,1.0,2.0,73,0.00,,,0.00,1.000000,,2013-02-05 06:21:00,
2013-02-05 00:32:00,-6.0,-12.0,-100.00,SW,230,1.0,2.0,73,0.00,,,0.00,1.000000,,2013-02-05 06:32:00,
2013-02-05 01:01:00,-1.0,-7.0,-100.00,SW,236,1.0,2.0,76,0.00,,,0.00,1.000000,,2013-02-05 07:01:00,
2013-02-05 01:11:00,-1.0,-7.0,-100.00,SW,236,1.0,2.0,76,0.00,,,0.00,1.000000,,2013-02-05 07:11:00,
2013-02-05 01:22:00,-1.0,-7.0,-100.00,SW,236,1.0,2.0,76,0.00,,,0.00,1.000000,,2013-02-05 07:22:00,
2013-02-05 01:32:00,-1.0,-7.0,-100.00,SW,236,1.0,2.0,76,0.00,,,0.00,1.000000,,2013-02-05 07:32:00,
2013-02-05 02:01:00,4.0,-4.0,-100.00,SW,217,3.0,7.0,69,0.00,,,0.00,1.000000,,2013-02-05 08:01:00,
2013-02-05 02:11:00,4.0,-4.0,-100.00,SW,217,3.0,7.0,69,0.00,,,0.00,1.000000,,2013-02-05 08:11:00,
2013-02-05 02:21:00,4.0,-4.0,-100.00,SW,217,3.0,7.0,69,0.00,,,0.00,1.000000,,2013-02-05 08:21:00,
2013-02-05 02:31:00,4.0,-4.0,-100.00,SW,217,3.0,7.0,69,0.00,,,0.00,1.000000,,2013-02-05 08:31:00,
2013-02-05 02:52:00,4.0,-2.0,-100.00,SSW,211,4.0,9.0,76,0.00,,,0.00,1.000000,,2013-02-05 08:52:00,
2013-02-05 03:02:00,4.0,-2.0,-100.00,SSW,211,4.0,9.0,76,0.00,,,0.00,1.000000,,2013-02-05 09:02:00,
2013-02-05 03:11:00,4.0,-2.0,-100.00,SSW,211,4.0,9.0,76,0.00,,,0.00,1.000000,,2013-02-05 09:11:00,
2013-02-05 03:21:00,4.0,-2.0,-100.00,SSW,211,4.0,9.0,76,0.00,,,0.00,1.000000,,2013-02-05 09:21:00,
2013-02-05 03:32:00,4.0,-2.0,-100.00,SSW,211,4.0,9.0,76,0.00,,,0.00,1.000000,,2013-02-05 09:32:00,
2013-02-05 03:52:00,6.0,1.0,-100.00,SW,226,4.0,10.0,79,0.00,,,0.00,1.000000,,2013-02-05 09:52:00,
2013-02-05 04:02:00,6.0,1.0,-100.00,SW,226,4.0,10.0,79,0.00,,,0.00,1.000000,,2013-02-05 10:02:00,
2013-02-05 04:11:00,6.0,1.0,-100.00,SW,226,4.0,10.0,79,0.00,,,0.00,1.000000,,2013-02-05 10:11:00,
2013-02-05 04:21:00,6.0,1.0,-100.00,SW,226,4.0,10.0,79,0.00,,,0.00,1.000000,,2013-02-05 10:21:00,
2013-02-05 04:32:00,6.0,1.0,-100.00,SW,226,4.0,10.0,79,0.00,,,0.00,1.000000,,2013-02-05 10:32:00,
2013-02-05 04:52:00,8.0,3.0,-100.00,SW,228,3.0,8.0,80,0.00,,,0.00,1.000000,,2013-02-05 10:52:00,
2013-02-05 05:01:00,8.0,3.0,-100.00,SW,228,3.0,8.0,80,0.00,,,0.00,1.000000,,2013-02-05 11:01:00,
2013-02-05 05:11:00,8.0,3.0,-100.00,SW,228,3.0,8.0,80,0.00,,,0.00,1.000000,,2013-02-05 11:11:00,
2013-02-05 05:22:00,8.0,3.0,-100.00,SW,228,3.0,8.0,80,0.00,,,0.00,1.000000,,2013-02-05 11:22:00,
2013-02-05 05:32:00,8.0,3.0,-100.00,SW,228,3.0,8.0,80,0.00,,,0.00,1.000000,,2013-02-05 11:32:00,
2013-02-05 05:52:00,9.0,4.0,-100.00,SW,233,5.0,12.0,79,0.00,,,-99.99,1.000000,,2013-02-05 11:52:00,
2013-02-05 06:01:00,9.0,4.0,-100.00,SW,233,5.0,12.0,79,0.00,,,-99.99,1.000000,,2013-02-05 12:01:00,
2013-02-05 06:12:00,9.0,4.0,-100.00,SW,233,5.0,12.0,79,0.00,,,-99.99,1.000000,,2013-02-05 12:12:00,
2013-02-05 06:22:00,9.0,4.0,-100.00,SW,233,5.0,12.0,79,0.00,,,-99.99,1.000000,,2013-02-05 12:22:00,
2013-02-05 06:32:00,9.0,4.0,-100.00,SW,233,5.0,12.0,79,0.00,,,-99.99,1.000000,,2013-02-05 12:32:00,
2013-02-05 07:01:00,10.0,5.0,-100.00,WSW,246,4.0,8.0,81,0.00,,,0.00,1.000000,,2013-02-05 13:01:00,
2013-02-05 07:12:00,10.0,5.0,-100.00,WSW,246,4.0,8.0,81,0.00,,,0.00,1.000000,,2013-02-05 13:12:00,
2013-02-05 07:22:00,10.0,5.0,-100.00,WSW,246,4.0,8.0,81,0.00,,,0.00,1.000000,,2013-02-05 13:22:00,
2013-02-05 07:32:00,10.0,5.0,-100.00,WSW,246,4.0,8.0,81,0.00,,,0.00,1.000000,,2013-02-05 13:32:00,
2013-02-05 08:01:00,11.0,7.0,-100.00,WSW,242,3.0,8.0,82,0.00,,,0.00,2.000000,,2013-02-05 14:01:00,
2013-02-05 08:12:00,11.0,7.0,-100.00,WSW,242,3.0,8.0,82,0.00,,,0.00,2.000000,,2013-02-05 14:12:00,
2013-02-05 08:21:00,11.0,7.0,-100.00,WSW,242,3.0,8.0,82,0.00,,,0.00,2.000000,,2013-02-05 14:21:00,
2013-02-05 08:31:00,11.0,7.0,-100.00,WSW,242,3.0,8.0,82,0.00,,,0.00,2.000000,,2013-02-05 14:31:00,
2013-02-05 09:02:00,12.0,7.0,-100.00,West,271,2.0,5.0,81,0.00,,,0.00,12.000000,,2013-02-05 15:02:00,
2013-02-05 09:11:00,12.0,7.0,-100.00,West,271,2.0,5.0,81,0.00,,,0.00,12.000000,,2013-02-05 15:11:00,
2013-02-05 09:21:00,12.0,7.0,-100.00,West,271,2.0,5.0,81,0.00,,,0.00,12.000000,,2013-02-05 15:21:00,
2013-02-05 09:32:00,12.0,7.0,-100.00,West,271,2.0,5.0,81,0.00,,,0.00,12.000000,,2013-02-05 15:32:00,
2013-02-05 10:01:00,14.0,8.0,-100.00,NW,324,4.0,8.0,78,0.00,,,0.00,41.000000,,2013-02-05 16:01:00,
2013-02-05 10:11:00,14.0,8.0,-100.00,NW,324,4.0,8.0,78,0.00,,,0.00,41.000000,,2013-02-05 16:11:00,
2013-02-05 10:22:00,14.0,8.0,-100.00,NW,324,4.0,8.0,78,0.00,,,0.00,41.000000,,2013-02-05 16:22:00,
2013-02-05 10:32:00,14.0,8.0,-100.00,NW,324,4.0,8.0,78,0.00,,,0.00,41.000000,,2013-02-05 16:32:00,
2013-02-05 10:52:00,16.0,9.0,-100.00,NNW,344,6.0,10.0,74,0.00,,,-99.99,106.000000,,2013-02-05 16:52:00,
2013-02-05 11:01:00,16.0,9.0,-100.00,NNW,344,6.0,10.0,74,0.00,,,-99.99,106.000000,,2013-02-05 17:01:00,
2013-02-05 11:11:00,16.0,9.0,-100.00,NNW,344,6.0,10.0,74,0.00,,,-99.99,106.000000,,2013-02-05 17:11:00,
2013-02-05 11:22:00,16.0,9.0,-100.00,NNW,344,6.0,10.0,74,0.00,,,-99.99,106.000000,,2013-02-05 17:22:00,
2013-02-05 11:32:00,16.0,9.0,-100.00,NNW,344,6.0,10.0,74,0.00,,,-99.99,106.000000,,2013-02-05 17:32:00,
2013-02-05 12:02:00,20.0,11.0,-100.00,NNW,333,6.0,11.0,66,0.00,,,0.00,192.000000,,2013-02-05 18:02:00,
2013-02-05 12:11:00,20.0,11.0,-100.00,NNW,333,6.0,11.0,66,0.00,,,0.00,192.000000,,2013-02-05 18:11:00,
2013-02-05 12:22:00,20.0,11.0,-100.00,NNW,333,6.0,11.0,66,0.00,,,0.00,192.000000,,2013-02-05 18:22:00,
2013-02-05 12:32:00,20.0,11.0,-100.00,NNW,333,6.0,11.0,66,0.00,,,0.00,192.000000,,2013-02-05 18:32:00,
2013-02-05 13:02:00,19.0,11.0,-100.00,North,352,8.0,15.0,72,0.00,,,0.00,173.000000,,2013-02-05 19:02:00,
2013-02-05 13:11:00,19.0,11.0,-100.00,North,352,8.0,15.0,72,0.00,,,0.00,173.000000,,2013-02-05 19:11:00,
2013-02-05 13:21:00,19.0,11.0,-100.00,North,352,8.0,15.0,72,0.00,,,0.00,173.000000,,2013-02-05 19:21:00,
2013-02-05 13:32:00,19.0,11.0,-100.00,North,352,8.0,15.0,72,0.00,,,0.00,173.000000,,2013-02-05 19:32:00,
2013-02-05 14:01:00,19.0,13.0,-100.00,North,4,10.0,18.0,76,0.00,,,0.00,140.000000,,2013-02-05 20:01:00,
2013-02-05 14:11:00,19.0,13.0,-100.00,North,4,10.0,18.0,76,0.00,,,0.00,140.000000,,2013-02-05 20:11:00,
2013-02-05 14:21:00,19.0,13.0,-100.00,North,4,10.0,18.0,76,0.00,,,0.00,140.000000,,2013-02-05 20:21:00,
2013-02-05 14:32:00,19.0,13.0,-100.00,North,4,10.0,18.0,76,0.00,,,0.00,140.000000,,2013-02-05 20:32:00,
2013-02-05 15:02:00,18.0,11.0,-100.00,North,4,7.0,16.0,74,0.00,,,0.00,130.000000,,2013-02-05 21:02:00,
2013-02-05 15:11:00,18.0,11.0,-100.00,North,4,7.0,16.0,74,0.00,,,0.00,130.000000,,2013-02-05 21:11:00,
2013-02-05 15:22:00,18.0,11.0,-100.00,North,4,7.0,16.0,74,0.00,,,0.00,130.000000,,2013-02-05 21:22:00,
2013-02-05 15:32:00,18.0,11.0,-100.00,North,4,7.0,16.0,74,0.00,,,0.00,130.000000,,2013-02-05 21:32:00,
2013-02-05 16:01:00,16.0,9.0,-100.00,North,350,8.0,14.0,73,0.00,,,0.00,82.000000,,2013-02-05 22:01:00,
2013-02-05 16:11:00,16.0,9.0,-100.00,North,350,8.0,14.0,73,0.00,,,0.00,82.000000,,2013-02-05 22:11:00,
2013-02-05 16:21:00,16.0,9.0,-100.00,North,350,8.0,14.0,73,0.00,,,0.00,82.000000,,2013-02-05 22:21:00,
2013-02-05 16:32:00,16.0,9.0,-100.00,North,350,8.0,14.0,73,0.00,,,0.00,82.000000,,2013-02-05 22:32:00,
2013-02-05 17:02:00,15.0,-99.9,-100.00,North,357,4.0,-999.0,-999,0.00,,,0.00,,,2013-02-05 23:02:00,
2013-02-05 17:12:00,15.0,-99.9,-100.00,North,357,4.0,-999.0,-999,0.00,,,0.00,,,2013-02-05 23:12:00,
2013-02-05 17:22:00,15.0,-99.9,-100.00,North,357,4.0,-999.0,-999,0.00,,,0.00,,,2013-02-05 23:22:00,
2013-02-05 17:33:00,15.0,-99.9,-100.00,North,357,4.0,-999.0,-999,0.00,,,0.00,,,2013-02-05 23:33:00,
2013-02-05 18:02:00,14.0,9.0,-100.00,NNW,337,3.0,8.0,80,0.00,,,0.00,8.000000,,2013-02-06 00:02:00,
2013-02-05 18:11:00,14.0,9.0,-100.00,NNW,337,3.0,8.0,80,0.00,,,0.00,8.000000,,2013-02-06 00:11:00,
2013-02-05 18:22:00,14.0,9.0,-100.00,NNW,337,3.0,8.0,80,0.00,,,0.00,8.000000,,2013-02-06 00:22:00,
2013-02-05 18:32:00,14.0,9.0,-100.00,NNW,337,3.0,8.0,80,0.00,,,0.00,8.000000,,2013-02-06 00:32:00,
2013-02-05 19:02:00,13.0,8.0,-100.00,NW,326,4.0,8.0,79,0.00,,,0.00,1.000000,,2013-02-06 01:02:00,
2013-02-05 19:11:00,13.0,8.0,-100.00,NW,326,4.0,8.0,79,0.00,,,0.00,1.000000,,2013-02-06 01:11:00,
2013-02-05 19:22:00,13.0,8.0,-100.00,NW,326,4.0,8.0,79,0.00,,,0.00,1.000000,,2013-02-06 01:22:00,
2013-02-05 19:32:00,13.0,8.0,-100.00,NW,326,4.0,8.0,79,0.00,,,0.00,1.000000,,2013-02-06 01:32:00,
2013-02-05 20:02:00,10.0,6.0,-100.00,WNW,295,2.0,4.0,83,0.00,,,0.00,1.000000,,2013-02-06 02:02:00,
2013-02-05 20:11:00,10.0,6.0,-100.00,WNW,295,2.0,4.0,83,0.00,,,0.00,1.000000,,2013-02-06 02:11:00,
2013-02-05 20:22:00,10.0,6.0,-100.00,WNW,295,2.0,4.0,83,0.00,,,0.00,1.000000,,2013-02-06 02:22:00,
2013-02-05 20:32:00,10.0,6.0,-100.00,WNW,295,2.0,4.0,83,0.00,,,0.00,1.000000,,2013-02-06 02:32:00,
2013-02-05 20:53:00,11.0,7.0,-100.00,WSW,247,1.0,4.0,84,0.00,,,0.00,1.000000,,2013-02-06 02:53:00,
2013-02-05 21:03:00,11.0,7.0,-100.00,WSW,247,1.0,4.0,84,0.00,,,0.00,1.000000,,2013-02-06 03:03:00,
2013-02-05 21:12:00,11.0,7.0,-100.00,WSW,247,1.0,4.0,84,0.00,,,0.00,1.000000,,2013-02-06 03:12:00,
2013-02-05 21:22:00,11.0,7.0,-100.00,WSW,247,1.0,4.0,84,0.00,,,0.00,1.000000,,2013-02-06 03:22:00,
2013-02-05 21:32:00,11.0,7.0,-100.00,WSW,247,1.0,4.0,84,0.00,,,0.00,1.000000,,2013-02-06 03:32:00,
2013-02-05 22:02:00,10.0,6.0,-100.00,WSW,242,1.0,3.0,82,0.00,,,0.00,1.000000,,2013-02-06 04:02:00,
2013-02-05 23:02:00,8.0,3.0,-100.00,SSW,200,0.0,3.0,81,-99.99,,,-99.99,1.000000,,2013-02-06 05:02:00,